Main page


Airports :

Meppen, Germany

Fliegerhorst Meppen

latitude: 52-43-24N, longitude: 007-19-35E, elevation: 21 m

Current weather observation

The report was made 13 minutes ago, at 22:20 UTC
Wind 4 kt from the South
Temperature 6°C
Humidity 75%
Pressure 1003 hPa
Visibility 10 km or more

METAR: ETWM 232220Z AUTO 19004KT 9999 // ////// 06/02 Q1003 ///

Time: 23:33 (22:33 UTC)

TAF: missing

Weather observations and forecasts of more than 4000 airports (METAR and TAF reports).

The available stations are represented by yellow and red dots on the map.

Hover mouse over dot to see the name of the station.

Then click to see weather observations and forecasts.

To change the map : click on the green buttons with a black cross to zoom in, on the green button with a dash to zoom out, or on the green arrows for adjacent maps.